sensor_id;sensor_type;location;lat;lon;timestamp;temperature;humidity
42913;DHT22;50720;54.324;18.558;2023-07-22T00:03:12;14.90;99.90
42913;DHT22;50720;54.324;18.558;2023-07-22T00:05:42;14.80;99.90
42913;DHT22;50720;54.324;18.558;2023-07-22T00:08:12;14.80;99.90
42913;DHT22;50720;54.324;18.558;2023-07-22T00:10:42;14.80;99.90
42913;DHT22;50720;54.324;18.558;2023-07-22T00:13:12;14.70;99.90
42913;DHT22;50720;54.324;18.558;2023-07-22T00:15:42;14.70;99.90
42913;DHT22;50720;54.324;18.558;2023-07-22T00:18:13;14.70;99.90
42913;DHT22;50720;54.324;18.558;2023-07-22T00:20:43;14.70;99.90
42913;DHT22;50720;54.324;18.558;2023-07-22T00:23:12;14.70;99.90
42913;DHT22;50720;54.324;18.558;2023-07-22T00:25:43;14.70;99.90
42913;DHT22;50720;54.324;18.558;2023-07-22T00:28:13;14.60;99.90
42913;DHT22;50720;54.324;18.558;2023-07-22T00:30:43;14.70;99.90
42913;DHT22;50720;54.324;18.558;2023-07-22T00:33:14;14.70;99.90
42913;DHT22;50720;54.324;18.558;2023-07-22T00:35:47;14.60;99.90
42913;DHT22;50720;54.324;18.558;2023-07-22T00:38:18;14.60;99.90
42913;DHT22;50720;54.324;18.558;2023-07-22T00:40:48;14.60;99.90
42913;DHT22;50720;54.324;18.558;2023-07-22T00:43:18;14.60;99.90
42913;DHT22;50720;54.324;18.558;2023-07-22T00:45:48;14.60;99.90
42913;DHT22;50720;54.324;18.558;2023-07-22T00:48:19;14.60;99.90
42913;DHT22;50720;54.324;18.558;2023-07-22T00:50:50;14.60;99.90
42913;DHT22;50720;54.324;18.558;2023-07-22T00:53:20;14.50;99.90
42913;DHT22;50720;54.324;18.558;2023-07-22T00:55:50;14.50;99.90
42913;DHT22;50720;54.324;18.558;2023-07-22T00:58:21;14.50;99.90
42913;DHT22;50720;54.324;18.558;2023-07-22T01:00:51;14.50;99.90
42913;DHT22;50720;54.324;18.558;2023-07-22T01:03:23;14.50;99.90
42913;DHT22;50720;54.324;18.558;2023-07-22T01:05:55;14.50;99.90
42913;DHT22;50720;54.324;18.558;2023-07-22T01:08:26;14.50;99.90
42913;DHT22;50720;54.324;18.558;2023-07-22T01:10:57;14.40;99.90
42913;DHT22;50720;54.324;18.558;2023-07-22T01:13:27;14.40;99.90
42913;DHT22;50720;54.324;18.558;2023-07-22T01:15:57;14.40;99.90
42913;DHT22;50720;54.324;18.558;2023-07-22T01:18:28;14.30;99.90
42913;DHT22;50720;54.324;18.558;2023-07-22T01:20:59;14.30;99.90
42913;DHT22;50720;54.324;18.558;2023-07-22T01:23:30;14.30;99.90
42913;DHT22;50720;54.324;18.558;2023-07-22T01:26:00;14.20;99.90
42913;DHT22;50720;54.324;18.558;2023-07-22T01:28:31;14.20;99.90
42913;DHT22;50720;54.324;18.558;2023-07-22T01:31:04;14.20;99.90
42913;DHT22;50720;54.324;18.558;2023-07-22T01:33:33;14.30;99.90
42913;DHT22;50720;54.324;18.558;2023-07-22T01:36:04;14.20;99.90
42913;DHT22;50720;54.324;18.558;2023-07-22T01:38:35;14.20;99.90
42913;DHT22;50720;54.324;18.558;2023-07-22T01:41:05;14.20;99.90
42913;DHT22;50720;54.324;18.558;2023-07-22T01:43:35;14.20;99.90
42913;DHT22;50720;54.324;18.558;2023-07-22T01:46:05;14.10;99.90
42913;DHT22;50720;54.324;18.558;2023-07-22T01:48:35;14.10;99.90
42913;DHT22;50720;54.324;18.558;2023-07-22T01:51:05;14.10;99.90
42913;DHT22;50720;54.324;18.558;2023-07-22T01:53:36;14.10;99.90
42913;DHT22;50720;54.324;18.558;2023-07-22T01:56:06;14.00;99.90
42913;DHT22;50720;54.324;18.558;2023-07-22T01:58:36;14.00;99.90
42913;DHT22;50720;54.324;18.558;2023-07-22T02:01:07;14.00;99.90
42913;DHT22;50720;54.324;18.558;2023-07-22T02:03:37;14.00;99.90
42913;DHT22;50720;54.324;18.558;2023-07-22T02:06:07;13.90;99.90
42913;DHT22;50720;54.324;18.558;2023-07-22T02:08:38;13.90;99.90
42913;DHT22;50720;54.324;18.558;2023-07-22T02:11:08;13.90;99.90
42913;DHT22;50720;54.324;18.558;2023-07-22T02:16:08;13.80;99.90
42913;DHT22;50720;54.324;18.558;2023-07-22T02:18:39;13.90;99.90
42913;DHT22;50720;54.324;18.558;2023-07-22T02:21:09;13.90;99.90
42913;DHT22;50720;54.324;18.558;2023-07-22T02:23:41;13.80;99.90
42913;DHT22;50720;54.324;18.558;2023-07-22T02:26:11;13.80;99.90
42913;DHT22;50720;54.324;18.558;2023-07-22T02:28:40;13.80;99.90
42913;DHT22;50720;54.324;18.558;2023-07-22T02:31:11;13.80;99.90
42913;DHT22;50720;54.324;18.558;2023-07-22T02:33:41;13.80;99.90
42913;DHT22;50720;54.324;18.558;2023-07-22T02:36:11;13.70;99.90
42913;DHT22;50720;54.324;18.558;2023-07-22T02:38:42;13.70;99.90
42913;DHT22;50720;54.324;18.558;2023-07-22T02:41:13;13.60;99.90
42913;DHT22;50720;54.324;18.558;2023-07-22T02:43:42;13.60;99.90
42913;DHT22;50720;54.324;18.558;2023-07-22T02:46:12;13.60;99.90
42913;DHT22;50720;54.324;18.558;2023-07-22T02:48:42;13.60;99.90
42913;DHT22;50720;54.324;18.558;2023-07-22T02:51:12;13.50;99.90
42913;DHT22;50720;54.324;18.558;2023-07-22T02:53:43;13.50;99.90
42913;DHT22;50720;54.324;18.558;2023-07-22T02:56:15;13.50;99.90
42913;DHT22;50720;54.324;18.558;2023-07-22T02:58:45;13.40;99.90
42913;DHT22;50720;54.324;18.558;2023-07-22T03:01:15;13.30;99.90
42913;DHT22;50720;54.324;18.558;2023-07-22T03:03:44;13.30;99.90
42913;DHT22;50720;54.324;18.558;2023-07-22T03:06:14;13.20;99.90
42913;DHT22;50720;54.324;18.558;2023-07-22T03:08:45;13.30;99.90
42913;DHT22;50720;54.324;18.558;2023-07-22T03:11:16;13.30;99.90
42913;DHT22;50720;54.324;18.558;2023-07-22T03:13:46;13.30;99.90
42913;DHT22;50720;54.324;18.558;2023-07-22T03:16:16;13.20;99.90
42913;DHT22;50720;54.324;18.558;2023-07-22T03:18:46;13.20;99.90
42913;DHT22;50720;54.324;18.558;2023-07-22T03:21:16;13.20;99.90
42913;DHT22;50720;54.324;18.558;2023-07-22T03:23:47;13.20;99.90
42913;DHT22;50720;54.324;18.558;2023-07-22T03:26:17;13.20;99.90
42913;DHT22;50720;54.324;18.558;2023-07-22T03:28:47;13.20;99.90
42913;DHT22;50720;54.324;18.558;2023-07-22T03:31:17;13.20;99.90
42913;DHT22;50720;54.324;18.558;2023-07-22T03:33:47;13.20;99.90
42913;DHT22;50720;54.324;18.558;2023-07-22T03:36:18;13.30;99.90
42913;DHT22;50720;54.324;18.558;2023-07-22T03:38:49;13.40;99.90
42913;DHT22;50720;54.324;18.558;2023-07-22T03:41:19;13.40;99.90
42913;DHT22;50720;54.324;18.558;2023-07-22T03:43:49;13.40;99.90
42913;DHT22;50720;54.324;18.558;2023-07-22T03:46:19;13.40;99.90
42913;DHT22;50720;54.324;18.558;2023-07-22T03:48:48;13.40;99.90
42913;DHT22;50720;54.324;18.558;2023-07-22T03:51:18;13.50;99.90
42913;DHT22;50720;54.324;18.558;2023-07-22T03:53:49;13.50;99.90
42913;DHT22;50720;54.324;18.558;2023-07-22T03:56:19;13.50;99.90
42913;DHT22;50720;54.324;18.558;2023-07-22T03:58:49;13.50;99.90
42913;DHT22;50720;54.324;18.558;2023-07-22T04:01:20;13.50;99.90
42913;DHT22;50720;54.324;18.558;2023-07-22T04:03:50;13.60;99.90
42913;DHT22;50720;54.324;18.558;2023-07-22T04:06:20;13.70;99.90
42913;DHT22;50720;54.324;18.558;2023-07-22T04:08:51;13.90;99.90
42913;DHT22;50720;54.324;18.558;2023-07-22T04:11:22;13.90;99.90
42913;DHT22;50720;54.324;18.558;2023-07-22T04:13:51;14.00;99.90
42913;DHT22;50720;54.324;18.558;2023-07-22T04:16:21;14.10;99.90
42913;DHT22;50720;54.324;18.558;2023-07-22T04:18:51;14.20;99.90
42913;DHT22;50720;54.324;18.558;2023-07-22T04:21:21;14.60;99.90
42913;DHT22;50720;54.324;18.558;2023-07-22T04:23:52;14.70;99.90
42913;DHT22;50720;54.324;18.558;2023-07-22T04:26:22;14.70;99.90
42913;DHT22;50720;54.324;18.558;2023-07-22T04:28:53;14.80;99.90
42913;DHT22;50720;54.324;18.558;2023-07-22T04:31:23;15.10;99.90
42913;DHT22;50720;54.324;18.558;2023-07-22T04:33:52;15.20;99.90
42913;DHT22;50720;54.324;18.558;2023-07-22T04:36:22;15.30;99.90
42913;DHT22;50720;54.324;18.558;2023-07-22T04:38:54;15.30;99.90
42913;DHT22;50720;54.324;18.558;2023-07-22T04:41:24;15.30;99.90
42913;DHT22;50720;54.324;18.558;2023-07-22T04:43:54;15.40;99.90
42913;DHT22;50720;54.324;18.558;2023-07-22T04:46:24;15.40;99.90
42913;DHT22;50720;54.324;18.558;2023-07-22T04:48:54;15.40;99.90
42913;DHT22;50720;54.324;18.558;2023-07-22T04:51:26;15.40;99.90
42913;DHT22;50720;54.324;18.558;2023-07-22T04:53:57;15.50;99.90
42913;DHT22;50720;54.324;18.558;2023-07-22T04:56:27;15.60;99.90
42913;DHT22;50720;54.324;18.558;2023-07-22T04:58:57;15.60;99.90
42913;DHT22;50720;54.324;18.558;2023-07-22T05:01:27;15.60;99.90
42913;DHT22;50720;54.324;18.558;2023-07-22T05:03:57;15.80;99.90
42913;DHT22;50720;54.324;18.558;2023-07-22T05:06:28;15.80;99.90
42913;DHT22;50720;54.324;18.558;2023-07-22T05:08:59;15.80;99.90
42913;DHT22;50720;54.324;18.558;2023-07-22T05:11:29;15.80;99.90
42913;DHT22;50720;54.324;18.558;2023-07-22T05:13:59;15.90;99.90
42913;DHT22;50720;54.324;18.558;2023-07-22T05:16:29;15.90;99.90
42913;DHT22;50720;54.324;18.558;2023-07-22T05:18:59;15.90;99.90
42913;DHT22;50720;54.324;18.558;2023-07-22T05:21:29;15.80;99.90
42913;DHT22;50720;54.324;18.558;2023-07-22T05:24:00;15.80;99.90
42913;DHT22;50720;54.324;18.558;2023-07-22T05:26:30;15.80;99.90
42913;DHT22;50720;54.324;18.558;2023-07-22T05:29:00;15.80;99.90
42913;DHT22;50720;54.324;18.558;2023-07-22T05:31:30;15.80;99.90
42913;DHT22;50720;54.324;18.558;2023-07-22T05:34:00;15.80;99.90
42913;DHT22;50720;54.324;18.558;2023-07-22T05:36:30;15.90;99.90
42913;DHT22;50720;54.324;18.558;2023-07-22T05:39:01;15.90;99.90
42913;DHT22;50720;54.324;18.558;2023-07-22T05:41:32;16.00;99.90
42913;DHT22;50720;54.324;18.558;2023-07-22T05:44:02;16.10;99.90
42913;DHT22;50720;54.324;18.558;2023-07-22T05:46:32;16.10;99.90
42913;DHT22;50720;54.324;18.558;2023-07-22T05:49:02;16.20;99.90
42913;DHT22;50720;54.324;18.558;2023-07-22T05:51:32;16.30;99.90
42913;DHT22;50720;54.324;18.558;2023-07-22T05:54:04;16.30;99.90
42913;DHT22;50720;54.324;18.558;2023-07-22T05:56:34;16.30;99.90
42913;DHT22;50720;54.324;18.558;2023-07-22T05:59:03;16.40;99.90
42913;DHT22;50720;54.324;18.558;2023-07-22T06:01:33;16.40;99.90
42913;DHT22;50720;54.324;18.558;2023-07-22T06:04:04;16.40;99.90
42913;DHT22;50720;54.324;18.558;2023-07-22T06:06:34;16.40;99.90
42913;DHT22;50720;54.324;18.558;2023-07-22T06:09:05;16.50;99.90
42913;DHT22;50720;54.324;18.558;2023-07-22T06:11:35;16.50;99.90
42913;DHT22;50720;54.324;18.558;2023-07-22T06:14:05;16.60;99.90
42913;DHT22;50720;54.324;18.558;2023-07-22T06:16:35;16.60;99.90
42913;DHT22;50720;54.324;18.558;2023-07-22T06:19:05;16.60;99.90
42913;DHT22;50720;54.324;18.558;2023-07-22T06:21:35;16.80;99.90
42913;DHT22;50720;54.324;18.558;2023-07-22T06:24:06;16.80;99.90
42913;DHT22;50720;54.324;18.558;2023-07-22T06:26:36;16.80;99.90
42913;DHT22;50720;54.324;18.558;2023-07-22T06:29:06;16.70;99.90
42913;DHT22;50720;54.324;18.558;2023-07-22T06:31:36;16.60;99.90
42913;DHT22;50720;54.324;18.558;2023-07-22T06:34:06;16.60;99.90
42913;DHT22;50720;54.324;18.558;2023-07-22T06:36:36;16.60;99.90
42913;DHT22;50720;54.324;18.558;2023-07-22T06:39:07;16.60;99.90
42913;DHT22;50720;54.324;18.558;2023-07-22T06:41:37;16.60;99.90
42913;DHT22;50720;54.324;18.558;2023-07-22T06:44:07;16.70;99.90
42913;DHT22;50720;54.324;18.558;2023-07-22T06:46:37;16.60;99.90
42913;DHT22;50720;54.324;18.558;2023-07-22T06:49:06;16.70;99.90
42913;DHT22;50720;54.324;18.558;2023-07-22T06:51:36;16.70;99.90
42913;DHT22;50720;54.324;18.558;2023-07-22T06:54:07;16.70;99.90
42913;DHT22;50720;54.324;18.558;2023-07-22T06:56:37;16.80;99.90
42913;DHT22;50720;54.324;18.558;2023-07-22T06:59:07;16.80;99.90
42913;DHT22;50720;54.324;18.558;2023-07-22T07:01:37;17.00;99.90
42913;DHT22;50720;54.324;18.558;2023-07-22T07:04:07;17.10;99.90
42913;DHT22;50720;54.324;18.558;2023-07-22T07:06:37;17.20;99.90
42913;DHT22;50720;54.324;18.558;2023-07-22T07:09:08;17.10;99.90
42913;DHT22;50720;54.324;18.558;2023-07-22T07:11:39;17.10;99.90
42913;DHT22;50720;54.324;18.558;2023-07-22T07:14:08;17.30;99.90
42913;DHT22;50720;54.324;18.558;2023-07-22T07:16:38;17.20;99.90
42913;DHT22;50720;54.324;18.558;2023-07-22T07:19:08;17.30;99.90
42913;DHT22;50720;54.324;18.558;2023-07-22T07:21:38;17.40;99.90
42913;DHT22;50720;54.324;18.558;2023-07-22T07:24:09;17.60;99.90
42913;DHT22;50720;54.324;18.558;2023-07-22T07:26:40;17.70;99.90
42913;DHT22;50720;54.324;18.558;2023-07-22T07:29:09;17.90;99.90
42913;DHT22;50720;54.324;18.558;2023-07-22T07:31:40;17.90;99.90
42913;DHT22;50720;54.324;18.558;2023-07-22T07:36:40;18.50;99.90
42913;DHT22;50720;54.324;18.558;2023-07-22T07:39:11;18.70;99.90
42913;DHT22;50720;54.324;18.558;2023-07-22T07:41:42;18.90;99.90
42913;DHT22;50720;54.324;18.558;2023-07-22T07:44:11;19.30;99.90
42913;DHT22;50720;54.324;18.558;2023-07-22T07:46:41;19.30;99.90
42913;DHT22;50720;54.324;18.558;2023-07-22T07:49:11;19.50;99.90
42913;DHT22;50720;54.324;18.558;2023-07-22T07:51:42;19.50;99.90
42913;DHT22;50720;54.324;18.558;2023-07-22T07:54:13;19.30;99.90
42913;DHT22;50720;54.324;18.558;2023-07-22T07:56:43;19.30;99.90
42913;DHT22;50720;54.324;18.558;2023-07-22T07:59:13;19.20;99.90
42913;DHT22;50720;54.324;18.558;2023-07-22T08:01:43;19.10;99.90
42913;DHT22;50720;54.324;18.558;2023-07-22T08:04:12;19.10;99.90
42913;DHT22;50720;54.324;18.558;2023-07-22T08:06:42;19.10;99.90
42913;DHT22;50720;54.324;18.558;2023-07-22T08:09:14;19.20;99.90
42913;DHT22;50720;54.324;18.558;2023-07-22T08:11:47;19.30;99.90
42913;DHT22;50720;54.324;18.558;2023-07-22T08:14:17;19.30;99.90
42913;DHT22;50720;54.324;18.558;2023-07-22T08:16:48;19.20;99.90
42913;DHT22;50720;54.324;18.558;2023-07-22T08:19:18;19.30;99.90
42913;DHT22;50720;54.324;18.558;2023-07-22T08:21:48;19.30;99.90
42913;DHT22;50720;54.324;18.558;2023-07-22T08:24:19;19.60;99.90
42913;DHT22;50720;54.324;18.558;2023-07-22T08:26:49;19.70;99.90
42913;DHT22;50720;54.324;18.558;2023-07-22T08:29:19;19.90;99.90
42913;DHT22;50720;54.324;18.558;2023-07-22T08:31:50;19.90;99.90
42913;DHT22;50720;54.324;18.558;2023-07-22T08:34:21;19.90;99.90
42913;DHT22;50720;54.324;18.558;2023-07-22T08:36:51;19.90;99.90
42913;DHT22;50720;54.324;18.558;2023-07-22T08:39:24;19.90;99.90
42913;DHT22;50720;54.324;18.558;2023-07-22T08:41:55;19.90;99.90
42913;DHT22;50720;54.324;18.558;2023-07-22T08:44:25;19.80;99.90
42913;DHT22;50720;54.324;18.558;2023-07-22T08:47:03;19.60;99.90
42913;DHT22;50720;54.324;18.558;2023-07-22T08:49:34;19.30;99.90
42913;DHT22;50720;54.324;18.558;2023-07-22T08:52:05;19.20;99.90
42913;DHT22;50720;54.324;18.558;2023-07-22T08:54:37;19.20;99.90
42913;DHT22;50720;54.324;18.558;2023-07-22T08:57:08;19.40;99.90
42913;DHT22;50720;54.324;18.558;2023-07-22T08:59:38;19.40;99.90
42913;DHT22;50720;54.324;18.558;2023-07-22T09:02:08;19.40;99.90
42913;DHT22;50720;54.324;18.558;2023-07-22T09:04:39;19.50;99.90
42913;DHT22;50720;54.324;18.558;2023-07-22T09:07:11;19.40;99.90
42913;DHT22;50720;54.324;18.558;2023-07-22T09:09:43;19.50;99.90
42913;DHT22;50720;54.324;18.558;2023-07-22T09:12:14;19.60;99.90
42913;DHT22;50720;54.324;18.558;2023-07-22T09:14:45;19.70;99.90
42913;DHT22;50720;54.324;18.558;2023-07-22T09:17:15;19.40;99.90
42913;DHT22;50720;54.324;18.558;2023-07-22T09:19:45;19.40;99.90
42913;DHT22;50720;54.324;18.558;2023-07-22T09:22:15;19.60;99.90
42913;DHT22;50720;54.324;18.558;2023-07-22T09:24:46;19.50;99.90
42913;DHT22;50720;54.324;18.558;2023-07-22T09:27:16;19.20;99.90
42913;DHT22;50720;54.324;18.558;2023-07-22T09:29:46;19.10;99.90
42913;DHT22;50720;54.324;18.558;2023-07-22T09:32:35;19.00;99.90
42913;DHT22;50720;54.324;18.558;2023-07-22T09:35:06;19.10;99.90
42913;DHT22;50720;54.324;18.558;2023-07-22T09:37:38;19.20;99.90
42913;DHT22;50720;54.324;18.558;2023-07-22T09:40:16;19.10;99.90
42913;DHT22;50720;54.324;18.558;2023-07-22T09:42:48;19.50;99.90
42913;DHT22;50720;54.324;18.558;2023-07-22T09:45:19;19.60;99.90
42913;DHT22;50720;54.324;18.558;2023-07-22T09:47:50;19.60;99.90
42913;DHT22;50720;54.324;18.558;2023-07-22T09:50:21;19.50;99.90
42913;DHT22;50720;54.324;18.558;2023-07-22T09:52:53;19.40;99.90
42913;DHT22;50720;54.324;18.558;2023-07-22T09:55:26;19.70;99.90
42913;DHT22;50720;54.324;18.558;2023-07-22T09:57:58;19.60;99.90
42913;DHT22;50720;54.324;18.558;2023-07-22T10:00:29;19.70;99.90
42913;DHT22;50720;54.324;18.558;2023-07-22T10:03:00;19.90;99.90
42913;DHT22;50720;54.324;18.558;2023-07-22T10:05:34;19.80;99.90
42913;DHT22;50720;54.324;18.558;2023-07-22T10:08:06;19.60;99.90
42913;DHT22;50720;54.324;18.558;2023-07-22T10:10:38;19.70;99.90
42913;DHT22;50720;54.324;18.558;2023-07-22T10:13:09;19.70;99.90
42913;DHT22;50720;54.324;18.558;2023-07-22T10:15:39;19.70;99.90
42913;DHT22;50720;54.324;18.558;2023-07-22T10:18:10;19.70;99.90
42913;DHT22;50720;54.324;18.558;2023-07-22T10:20:41;19.80;99.90
42913;DHT22;50720;54.324;18.558;2023-07-22T10:23:13;19.70;99.90
42913;DHT22;50720;54.324;18.558;2023-07-22T10:25:46;19.40;99.90
42913;DHT22;50720;54.324;18.558;2023-07-22T10:28:19;19.40;99.90
42913;DHT22;50720;54.324;18.558;2023-07-22T10:30:51;19.40;99.90
42913;DHT22;50720;54.324;18.558;2023-07-22T10:33:21;19.30;99.90
42913;DHT22;50720;54.324;18.558;2023-07-22T10:36:05;19.20;99.90
42913;DHT22;50720;54.324;18.558;2023-07-22T10:38:35;19.10;99.90
42913;DHT22;50720;54.324;18.558;2023-07-22T10:41:14;18.60;99.90
42913;DHT22;50720;54.324;18.558;2023-07-22T10:43:55;18.70;99.90
42913;DHT22;50720;54.324;18.558;2023-07-22T10:46:34;18.50;99.90
42913;DHT22;50720;54.324;18.558;2023-07-22T10:49:09;18.80;99.90
42913;DHT22;50720;54.324;18.558;2023-07-22T10:51:40;19.10;99.90
42913;DHT22;50720;54.324;18.558;2023-07-22T10:54:13;19.30;99.90
42913;DHT22;50720;54.324;18.558;2023-07-22T10:56:45;19.40;99.90
42913;DHT22;50720;54.324;18.558;2023-07-22T10:59:15;19.60;99.90
42913;DHT22;50720;54.324;18.558;2023-07-22T11:01:44;20.20;99.90
42913;DHT22;50720;54.324;18.558;2023-07-22T11:04:22;20.30;99.90
42913;DHT22;50720;54.324;18.558;2023-07-22T11:07:30;20.60;99.90
42913;DHT22;50720;54.324;18.558;2023-07-22T11:10:13;19.80;99.90
42913;DHT22;50720;54.324;18.558;2023-07-22T11:12:46;19.80;99.90
42913;DHT22;50720;54.324;18.558;2023-07-22T11:15:18;19.20;99.90
42913;DHT22;50720;54.324;18.558;2023-07-22T11:17:48;19.20;99.90
42913;DHT22;50720;54.324;18.558;2023-07-22T11:20:22;19.10;99.90
42913;DHT22;50720;54.324;18.558;2023-07-22T11:22:53;19.00;99.90
42913;DHT22;50720;54.324;18.558;2023-07-22T11:25:23;19.10;99.90
42913;DHT22;50720;54.324;18.558;2023-07-22T11:27:56;19.20;99.90
42913;DHT22;50720;54.324;18.558;2023-07-22T11:30:27;19.20;99.90
42913;DHT22;50720;54.324;18.558;2023-07-22T11:32:58;19.30;99.90
42913;DHT22;50720;54.324;18.558;2023-07-22T11:35:28;19.50;99.90
42913;DHT22;50720;54.324;18.558;2023-07-22T11:38:01;20.10;99.90
42913;DHT22;50720;54.324;18.558;2023-07-22T11:40:33;21.10;99.90
42913;DHT22;50720;54.324;18.558;2023-07-22T11:43:05;21.80;99.90
42913;DHT22;50720;54.324;18.558;2023-07-22T11:45:38;21.90;99.90
42913;DHT22;50720;54.324;18.558;2023-07-22T11:48:10;22.60;99.90
42913;DHT22;50720;54.324;18.558;2023-07-22T11:50:40;23.00;99.90
42913;DHT22;50720;54.324;18.558;2023-07-22T11:53:10;22.10;99.90
42913;DHT22;50720;54.324;18.558;2023-07-22T11:55:40;22.10;99.90
42913;DHT22;50720;54.324;18.558;2023-07-22T11:58:11;21.80;99.90
42913;DHT22;50720;54.324;18.558;2023-07-22T12:00:43;21.80;99.90
42913;DHT22;50720;54.324;18.558;2023-07-22T12:03:32;22.00;99.90
42913;DHT22;50720;54.324;18.558;2023-07-22T12:06:03;22.50;99.90
42913;DHT22;50720;54.324;18.558;2023-07-22T12:08:33;22.50;99.90
42913;DHT22;50720;54.324;18.558;2023-07-22T12:11:04;22.80;99.90
42913;DHT22;50720;54.324;18.558;2023-07-22T12:13:38;22.80;99.90
42913;DHT22;50720;54.324;18.558;2023-07-22T12:16:09;22.00;99.90
42913;DHT22;50720;54.324;18.558;2023-07-22T12:18:44;21.70;99.90
42913;DHT22;50720;54.324;18.558;2023-07-22T12:21:14;21.80;99.90
42913;DHT22;50720;54.324;18.558;2023-07-22T12:23:45;21.50;99.90
42913;DHT22;50720;54.324;18.558;2023-07-22T12:26:15;21.20;99.90
42913;DHT22;50720;54.324;18.558;2023-07-22T12:28:46;19.50;99.90
42913;DHT22;50720;54.324;18.558;2023-07-22T12:31:16;18.70;99.90
42913;DHT22;50720;54.324;18.558;2023-07-22T12:33:46;17.60;99.90
42913;DHT22;50720;54.324;18.558;2023-07-22T12:36:16;18.00;99.90
42913;DHT22;50720;54.324;18.558;2023-07-22T12:38:46;18.40;99.90
42913;DHT22;50720;54.324;18.558;2023-07-22T12:41:16;17.90;99.90
42913;DHT22;50720;54.324;18.558;2023-07-22T12:43:47;18.00;99.90
42913;DHT22;50720;54.324;18.558;2023-07-22T12:46:17;18.00;99.90
42913;DHT22;50720;54.324;18.558;2023-07-22T12:48:47;19.30;99.90
42913;DHT22;50720;54.324;18.558;2023-07-22T12:51:17;19.30;99.90
42913;DHT22;50720;54.324;18.558;2023-07-22T12:53:46;21.00;99.90
42913;DHT22;50720;54.324;18.558;2023-07-22T12:56:16;20.90;99.90
42913;DHT22;50720;54.324;18.558;2023-07-22T12:58:47;20.70;99.90
42913;DHT22;50720;54.324;18.558;2023-07-22T13:01:17;20.70;99.90
42913;DHT22;50720;54.324;18.558;2023-07-22T13:03:47;20.10;99.90
42913;DHT22;50720;54.324;18.558;2023-07-22T13:06:17;20.10;99.90
42913;DHT22;50720;54.324;18.558;2023-07-22T13:08:47;20.40;99.90
42913;DHT22;50720;54.324;18.558;2023-07-22T13:11:17;21.10;99.90
42913;DHT22;50720;54.324;18.558;2023-07-22T13:13:48;21.20;99.90
42913;DHT22;50720;54.324;18.558;2023-07-22T13:16:18;22.10;99.90
42913;DHT22;50720;54.324;18.558;2023-07-22T13:18:48;22.80;99.90
42913;DHT22;50720;54.324;18.558;2023-07-22T13:21:18;22.90;99.90
42913;DHT22;50720;54.324;18.558;2023-07-22T13:23:47;22.90;99.90
42913;DHT22;50720;54.324;18.558;2023-07-22T13:26:17;23.00;99.90
42913;DHT22;50720;54.324;18.558;2023-07-22T13:28:48;23.10;99.90
42913;DHT22;50720;54.324;18.558;2023-07-22T13:31:19;22.70;99.90
42913;DHT22;50720;54.324;18.558;2023-07-22T13:33:49;22.70;99.90
42913;DHT22;50720;54.324;18.558;2023-07-22T13:36:19;22.40;99.90
42913;DHT22;50720;54.324;18.558;2023-07-22T13:38:48;22.20;99.90
42913;DHT22;50720;54.324;18.558;2023-07-22T13:41:19;22.20;99.90
42913;DHT22;50720;54.324;18.558;2023-07-22T13:43:50;22.20;99.90
42913;DHT22;50720;54.324;18.558;2023-07-22T13:46:21;22.80;99.90
42913;DHT22;50720;54.324;18.558;2023-07-22T13:48:50;22.70;99.90
42913;DHT22;50720;54.324;18.558;2023-07-22T13:51:20;22.50;99.90
42913;DHT22;50720;54.324;18.558;2023-07-22T13:53:50;22.30;99.90
42913;DHT22;50720;54.324;18.558;2023-07-22T13:56:21;21.80;99.90
42913;DHT22;50720;54.324;18.558;2023-07-22T13:58:53;21.20;99.90
42913;DHT22;50720;54.324;18.558;2023-07-22T14:01:23;21.20;99.90
42913;DHT22;50720;54.324;18.558;2023-07-22T14:03:53;21.30;99.90
42913;DHT22;50720;54.324;18.558;2023-07-22T14:06:23;21.40;99.90
42913;DHT22;50720;54.324;18.558;2023-07-22T14:08:53;21.50;99.90
42913;DHT22;50720;54.324;18.558;2023-07-22T14:11:23;21.50;99.90
42913;DHT22;50720;54.324;18.558;2023-07-22T14:13:54;21.60;99.90
42913;DHT22;50720;54.324;18.558;2023-07-22T14:16:24;21.30;99.90
42913;DHT22;50720;54.324;18.558;2023-07-22T14:18:54;21.30;99.90
42913;DHT22;50720;54.324;18.558;2023-07-22T14:21:24;21.60;99.90
42913;DHT22;50720;54.324;18.558;2023-07-22T14:23:54;21.60;99.90
42913;DHT22;50720;54.324;18.558;2023-07-22T14:26:24;21.40;99.90
42913;DHT22;50720;54.324;18.558;2023-07-22T14:28:55;21.20;99.90
42913;DHT22;50720;54.324;18.558;2023-07-22T14:31:25;20.40;99.90
42913;DHT22;50720;54.324;18.558;2023-07-22T14:33:56;20.40;99.90
42913;DHT22;50720;54.324;18.558;2023-07-22T14:36:26;20.50;99.90
42913;DHT22;50720;54.324;18.558;2023-07-22T14:38:56;20.50;99.90
42913;DHT22;50720;54.324;18.558;2023-07-22T14:41:26;21.50;99.90
42913;DHT22;50720;54.324;18.558;2023-07-22T14:43:58;21.50;99.90
42913;DHT22;50720;54.324;18.558;2023-07-22T14:46:28;22.00;99.90
42913;DHT22;50720;54.324;18.558;2023-07-22T14:48:58;22.20;99.90
42913;DHT22;50720;54.324;18.558;2023-07-22T14:51:28;22.10;99.90
42913;DHT22;50720;54.324;18.558;2023-07-22T14:53:58;21.80;99.90
42913;DHT22;50720;54.324;18.558;2023-07-22T14:56:28;21.70;99.90
42913;DHT22;50720;54.324;18.558;2023-07-22T14:58:59;21.50;99.90
42913;DHT22;50720;54.324;18.558;2023-07-22T15:01:37;21.70;99.90
42913;DHT22;50720;54.324;18.558;2023-07-22T15:04:07;22.20;99.90
42913;DHT22;50720;54.324;18.558;2023-07-22T15:06:37;22.60;99.90
42913;DHT22;50720;54.324;18.558;2023-07-22T15:09:07;22.50;99.90
42913;DHT22;50720;54.324;18.558;2023-07-22T15:11:37;22.10;99.90
42913;DHT22;50720;54.324;18.558;2023-07-22T15:14:08;21.80;99.90
42913;DHT22;50720;54.324;18.558;2023-07-22T15:16:39;21.00;99.90
42913;DHT22;50720;54.324;18.558;2023-07-22T15:19:10;21.00;99.90
42913;DHT22;50720;54.324;18.558;2023-07-22T15:21:40;20.20;99.90
42913;DHT22;50720;54.324;18.558;2023-07-22T15:24:10;20.20;99.90
42913;DHT22;50720;54.324;18.558;2023-07-22T15:26:40;19.90;99.90
42913;DHT22;50720;54.324;18.558;2023-07-22T15:29:11;19.60;99.90
42913;DHT22;50720;54.324;18.558;2023-07-22T15:31:41;19.50;99.90
42913;DHT22;50720;54.324;18.558;2023-07-22T15:34:11;19.40;99.90
42913;DHT22;50720;54.324;18.558;2023-07-22T15:36:41;19.20;99.90
42913;DHT22;50720;54.324;18.558;2023-07-22T15:39:10;19.20;99.90
42913;DHT22;50720;54.324;18.558;2023-07-22T15:41:40;19.60;99.90
42913;DHT22;50720;54.324;18.558;2023-07-22T15:44:12;20.50;99.90